sensor_id;sensor_type;location;lat;lon;timestamp;pressure;altitude;pressure_sealevel;temperature;humidity
10135;BME280;5107;48.850;8.924;2023-02-20T00:00:09;97898.13;;;7.47;84.05
10135;BME280;5107;48.850;8.924;2023-02-20T00:02:42;97895.50;;;7.47;84.16
10135;BME280;5107;48.850;8.924;2023-02-20T00:05:11;97880.41;;;7.39;84.11
10135;BME280;5107;48.850;8.924;2023-02-20T00:07:40;97891.72;;;7.40;84.38
10135;BME280;5107;48.850;8.924;2023-02-20T00:10:08;97890.41;;;7.34;84.37
10135;BME280;5107;48.850;8.924;2023-02-20T00:12:35;97886.47;;;7.29;84.15
10135;BME280;5107;48.850;8.924;2023-02-20T00:15:03;97873.66;;;7.26;84.68
10135;BME280;5107;48.850;8.924;2023-02-20T00:17:30;97877.72;;;7.18;84.38
10135;BME280;5107;48.850;8.924;2023-02-20T00:19:57;97877.22;;;7.13;84.33
10135;BME280;5107;48.850;8.924;2023-02-20T00:22:25;97874.84;;;7.10;84.50
10135;BME280;5107;48.850;8.924;2023-02-20T00:24:54;97876.63;;;7.10;84.75
10135;BME280;5107;48.850;8.924;2023-02-20T00:27:21;97870.69;;;7.08;84.56
10135;BME280;5107;48.850;8.924;2023-02-20T00:29:48;97884.72;;;7.07;84.94
10135;BME280;5107;48.850;8.924;2023-02-20T00:32:15;97884.09;;;7.03;84.77
10135;BME280;5107;48.850;8.924;2023-02-20T00:34:42;97882.56;;;7.01;84.87
10135;BME280;5107;48.850;8.924;2023-02-20T00:37:09;97886.38;;;6.97;84.90
10135;BME280;5107;48.850;8.924;2023-02-20T00:39:36;97894.59;;;6.92;84.96
10135;BME280;5107;48.850;8.924;2023-02-20T00:42:06;97901.94;;;6.87;85.33
10135;BME280;5107;48.850;8.924;2023-02-20T00:44:33;97905.63;;;6.84;85.35
10135;BME280;5107;48.850;8.924;2023-02-20T00:47:01;97916.31;;;6.81;85.44
10135;BME280;5107;48.850;8.924;2023-02-20T00:49:28;97905.63;;;6.84;85.44
10135;BME280;5107;48.850;8.924;2023-02-20T00:52:07;97896.22;;;6.82;85.17
10135;BME280;5107;48.850;8.924;2023-02-20T00:54:34;97893.13;;;6.77;85.28
10135;BME280;5107;48.850;8.924;2023-02-20T00:57:02;97888.25;;;6.72;85.29
10135;BME280;5107;48.850;8.924;2023-02-20T00:59:30;97898.13;;;6.69;85.06
10135;BME280;5107;48.850;8.924;2023-02-20T01:01:57;97899.28;;;6.65;85.07
10135;BME280;5107;48.850;8.924;2023-02-20T01:04:24;97893.59;;;6.60;85.67
10135;BME280;5107;48.850;8.924;2023-02-20T01:06:52;97903.31;;;6.58;85.44
10135;BME280;5107;48.850;8.924;2023-02-20T01:09:19;97900.91;;;6.55;85.76
10135;BME280;5107;48.850;8.924;2023-02-20T01:11:47;97905.56;;;6.51;85.85
10135;BME280;5107;48.850;8.924;2023-02-20T01:14:14;97905.56;;;6.51;85.91
10135;BME280;5107;48.850;8.924;2023-02-20T01:16:50;97908.19;;;6.51;85.81
10135;BME280;5107;48.850;8.924;2023-02-20T01:19:18;97899.00;;;6.45;85.55
10135;BME280;5107;48.850;8.924;2023-02-20T01:21:45;97907.09;;;6.42;86.20
10135;BME280;5107;48.850;8.924;2023-02-20T01:24:13;97889.22;;;6.36;86.40
10135;BME280;5107;48.850;8.924;2023-02-20T01:26:41;97892.19;;;6.32;86.64
10135;BME280;5107;48.850;8.924;2023-02-20T01:29:08;97888.47;;;6.23;87.34
10135;BME280;5107;48.850;8.924;2023-02-20T01:31:35;97899.88;;;6.22;87.36
10135;BME280;5107;48.850;8.924;2023-02-20T01:34:04;97892.50;;;6.16;87.89
10135;BME280;5107;48.850;8.924;2023-02-20T01:36:32;97887.59;;;6.12;87.93
10135;BME280;5107;48.850;8.924;2023-02-20T01:39:01;97887.84;;;6.08;87.62
10135;BME280;5107;48.850;8.924;2023-02-20T01:41:28;97889.00;;;6.04;88.15
10135;BME280;5107;48.850;8.924;2023-02-20T01:43:55;97885.53;;;6.04;87.35
10135;BME280;5107;48.850;8.924;2023-02-20T01:46:49;97879.94;;;5.97;87.74
10135;BME280;5107;48.850;8.924;2023-02-20T01:49:26;97872.31;;;5.94;87.74
10135;BME280;5107;48.850;8.924;2023-02-20T01:52:06;97867.53;;;5.88;87.49
10135;BME280;5107;48.850;8.924;2023-02-20T01:54:35;97864.53;;;5.82;88.30
10135;BME280;5107;48.850;8.924;2023-02-20T01:57:09;97860.59;;;5.76;88.69
10135;BME280;5107;48.850;8.924;2023-02-20T01:59:40;97867.22;;;5.69;89.05
10135;BME280;5107;48.850;8.924;2023-02-20T02:02:08;97859.78;;;5.63;89.20
10135;BME280;5107;48.850;8.924;2023-02-20T02:04:38;97856.59;;;5.59;89.00
10135;BME280;5107;48.850;8.924;2023-02-20T02:07:07;97862.00;;;5.56;89.12
10135;BME280;5107;48.850;8.924;2023-02-20T02:09:40;97866.50;;;5.54;89.88
10135;BME280;5107;48.850;8.924;2023-02-20T02:12:10;97859.41;;;5.56;89.39
10135;BME280;5107;48.850;8.924;2023-02-20T02:14:37;97863.59;;;5.59;89.38
10135;BME280;5107;48.850;8.924;2023-02-20T02:17:55;97853.03;;;5.60;89.90
10135;BME280;5107;48.850;8.924;2023-02-20T02:25:02;97857.56;;;5.69;90.47
10135;BME280;5107;48.850;8.924;2023-02-20T02:35:28;97852.31;;;5.82;89.48
10135;BME280;5107;48.850;8.924;2023-02-20T02:38:11;97849.78;;;5.81;89.94
10135;BME280;5107;48.850;8.924;2023-02-20T02:40:47;97854.19;;;5.80;89.60
10135;BME280;5107;48.850;8.924;2023-02-20T02:43:27;97844.56;;;5.81;89.55
10135;BME280;5107;48.850;8.924;2023-02-20T02:46:03;97841.75;;;5.84;89.51
10135;BME280;5107;48.850;8.924;2023-02-20T02:48:36;97843.22;;;5.88;89.18
10135;BME280;5107;48.850;8.924;2023-02-20T02:51:12;97832.56;;;5.91;88.48
10135;BME280;5107;48.850;8.924;2023-02-20T02:54:05;97841.31;;;5.90;88.89
10135;BME280;5107;48.850;8.924;2023-02-20T02:56:34;97830.78;;;5.91;88.67
10135;BME280;5107;48.850;8.924;2023-02-20T02:59:01;97836.84;;;5.92;88.54
10135;BME280;5107;48.850;8.924;2023-02-20T03:01:30;97832.09;;;5.97;88.25
10135;BME280;5107;48.850;8.924;2023-02-20T03:04:00;97830.81;;;6.02;88.59
10135;BME280;5107;48.850;8.924;2023-02-20T03:06:33;97835.59;;;6.08;88.02
10135;BME280;5107;48.850;8.924;2023-02-20T03:09:06;97825.72;;;6.12;87.90
10135;BME280;5107;48.850;8.924;2023-02-20T03:11:37;97828.84;;;6.17;87.42
10135;BME280;5107;48.850;8.924;2023-02-20T03:14:10;97830.38;;;6.20;87.12
10135;BME280;5107;48.850;8.924;2023-02-20T03:17:02;97831.00;;;6.23;86.69
10135;BME280;5107;48.850;8.924;2023-02-20T03:19:39;97833.53;;;6.36;86.42
10135;BME280;5107;48.850;8.924;2023-02-20T03:22:15;97843.00;;;6.37;85.54
10135;BME280;5107;48.850;8.924;2023-02-20T03:24:49;97841.22;;;6.37;85.99
10135;BME280;5107;48.850;8.924;2023-02-20T03:27:34;97835.06;;;6.38;86.19
10135;BME280;5107;48.850;8.924;2023-02-20T03:30:10;97830.56;;;6.40;86.06
10135;BME280;5107;48.850;8.924;2023-02-20T03:32:41;97824.38;;;6.41;85.97
10135;BME280;5107;48.850;8.924;2023-02-20T03:35:29;97831.72;;;6.36;85.96
10135;BME280;5107;48.850;8.924;2023-02-20T03:38:16;97834.69;;;6.32;86.14
10135;BME280;5107;48.850;8.924;2023-02-20T03:41:03;97827.22;;;6.27;86.47
10135;BME280;5107;48.850;8.924;2023-02-20T03:43:50;97827.44;;;6.24;86.49
10135;BME280;5107;48.850;8.924;2023-02-20T03:46:21;97830.38;;;6.20;86.72
10135;BME280;5107;48.850;8.924;2023-02-20T03:48:54;97826.66;;;6.11;86.77
10135;BME280;5107;48.850;8.924;2023-02-20T03:51:24;97839.03;;;6.09;87.04
10135;BME280;5107;48.850;8.924;2023-02-20T03:53:59;97832.97;;;6.08;87.63
10135;BME280;5107;48.850;8.924;2023-02-20T03:56:33;97835.81;;;6.05;87.28
10135;BME280;5107;48.850;8.924;2023-02-20T03:59:08;97831.63;;;6.03;87.85
10135;BME280;5107;48.850;8.924;2023-02-20T04:01:38;97831.03;;;5.99;87.61
10135;BME280;5107;48.850;8.924;2023-02-20T04:04:14;97825.44;;;5.93;87.68
10135;BME280;5107;48.850;8.924;2023-02-20T04:06:46;97827.31;;;5.91;87.61
10135;BME280;5107;48.850;8.924;2023-02-20T04:09:20;97835.59;;;5.85;87.84
10135;BME280;5107;48.850;8.924;2023-02-20T04:11:53;97820.47;;;5.77;87.83
10135;BME280;5107;48.850;8.924;2023-02-20T04:14:25;97818.19;;;5.72;88.21
10135;BME280;5107;48.850;8.924;2023-02-20T04:17:04;97811.53;;;5.68;88.47
10135;BME280;5107;48.850;8.924;2023-02-20T04:19:33;97803.72;;;5.68;88.80
10135;BME280;5107;48.850;8.924;2023-02-20T04:22:03;97803.47;;;5.71;88.23
10135;BME280;5107;48.850;8.924;2023-02-20T04:24:39;97796.56;;;5.70;88.39
10135;BME280;5107;48.850;8.924;2023-02-20T04:27:10;97798.22;;;5.60;88.28
10135;BME280;5107;48.850;8.924;2023-02-20T04:29:45;97798.63;;;5.54;88.65
10135;BME280;5107;48.850;8.924;2023-02-20T04:32:12;97788.44;;;5.51;88.09
10135;BME280;5107;48.850;8.924;2023-02-20T04:34:40;97794.72;;;5.49;88.10
10135;BME280;5107;48.850;8.924;2023-02-20T04:37:12;97792.56;;;5.43;88.38
10135;BME280;5107;48.850;8.924;2023-02-20T04:39:40;97801.63;;;5.37;88.69
10135;BME280;5107;48.850;8.924;2023-02-20T04:42:10;97808.88;;;5.33;88.62
10135;BME280;5107;48.850;8.924;2023-02-20T04:44:39;97806.69;;;5.27;88.88
10135;BME280;5107;48.850;8.924;2023-02-20T04:47:13;97814.94;;;5.21;88.48
10135;BME280;5107;48.850;8.924;2023-02-20T04:49:41;97804.75;;;5.18;89.46
10135;BME280;5107;48.850;8.924;2023-02-20T04:52:10;97808.59;;;5.13;89.49
10135;BME280;5107;48.850;8.924;2023-02-20T04:54:38;97810.47;;;5.11;89.67
10135;BME280;5107;48.850;8.924;2023-02-20T04:57:06;97804.66;;;5.07;89.63
10135;BME280;5107;48.850;8.924;2023-02-20T04:59:34;97815.31;;;5.04;89.29
10135;BME280;5107;48.850;8.924;2023-02-20T05:02:01;97821.47;;;5.03;90.03
10135;BME280;5107;48.850;8.924;2023-02-20T05:04:28;97811.97;;;5.02;89.93
10135;BME280;5107;48.850;8.924;2023-02-20T05:06:56;97820.53;;;5.04;89.94
10135;BME280;5107;48.850;8.924;2023-02-20T05:09:23;97830.13;;;5.04;89.77
10135;BME280;5107;48.850;8.924;2023-02-20T05:11:51;97826.69;;;5.03;89.62
10135;BME280;5107;48.850;8.924;2023-02-20T05:14:19;97814.56;;;5.02;89.60
10135;BME280;5107;48.850;8.924;2023-02-20T05:16:48;97815.00;;;4.96;89.75
10135;BME280;5107;48.850;8.924;2023-02-20T05:19:16;97820.75;;;4.88;89.77
10135;BME280;5107;48.850;8.924;2023-02-20T05:21:44;97814.13;;;4.84;90.40
10135;BME280;5107;48.850;8.924;2023-02-20T05:24:30;97821.09;;;4.84;90.57
10135;BME280;5107;48.850;8.924;2023-02-20T05:26:57;97811.72;;;4.81;90.41
10135;BME280;5107;48.850;8.924;2023-02-20T05:29:24;97811.06;;;4.78;89.85
10135;BME280;5107;48.850;8.924;2023-02-20T05:31:53;97794.72;;;4.76;90.48
10135;BME280;5107;48.850;8.924;2023-02-20T05:34:20;97802.00;;;4.83;90.77
10135;BME280;5107;48.850;8.924;2023-02-20T05:36:47;97800.44;;;4.81;90.37
10135;BME280;5107;48.850;8.924;2023-02-20T05:39:14;97799.81;;;4.77;90.59
10135;BME280;5107;48.850;8.924;2023-02-20T05:41:42;97807.97;;;4.73;90.39
10135;BME280;5107;48.850;8.924;2023-02-20T05:44:09;97804.63;;;4.71;90.29
10135;BME280;5107;48.850;8.924;2023-02-20T05:46:39;97803.09;;;4.68;90.34
10135;BME280;5107;48.850;8.924;2023-02-20T05:49:08;97810.06;;;4.68;90.64
10135;BME280;5107;48.850;8.924;2023-02-20T05:51:36;97812.78;;;4.66;90.43
10135;BME280;5107;48.850;8.924;2023-02-20T05:54:04;97806.72;;;4.66;90.95
10135;BME280;5107;48.850;8.924;2023-02-20T05:56:31;97805.25;;;4.62;90.49
10135;BME280;5107;48.850;8.924;2023-02-20T05:58:59;97806.31;;;4.59;90.45
10135;BME280;5107;48.850;8.924;2023-02-20T06:01:29;97810.69;;;4.58;91.01
10135;BME280;5107;48.850;8.924;2023-02-20T06:03:56;97806.63;;;4.54;91.03
10135;BME280;5107;48.850;8.924;2023-02-20T06:06:32;97799.31;;;4.47;90.47
10135;BME280;5107;48.850;8.924;2023-02-20T06:09:00;97808.91;;;4.46;90.67
10135;BME280;5107;48.850;8.924;2023-02-20T06:11:27;97804.63;;;4.45;90.90
10135;BME280;5107;48.850;8.924;2023-02-20T06:13:54;97810.69;;;4.46;91.05
10135;BME280;5107;48.850;8.924;2023-02-20T06:16:23;97812.69;;;4.42;91.00
10135;BME280;5107;48.850;8.924;2023-02-20T06:18:53;97804.81;;;4.80;97.72
10135;BME280;5107;48.850;8.924;2023-02-20T06:21:20;97809.63;;;5.23;97.88
10135;BME280;5107;48.850;8.924;2023-02-20T06:23:52;97808.50;;;5.14;91.44
10135;BME280;5107;48.850;8.924;2023-02-20T06:26:20;97808.84;;;4.97;89.14
10135;BME280;5107;48.850;8.924;2023-02-20T06:28:47;97809.84;;;4.83;88.70
10135;BME280;5107;48.850;8.924;2023-02-20T06:31:21;97815.69;;;4.74;89.29
10135;BME280;5107;48.850;8.924;2023-02-20T06:33:48;97812.78;;;4.66;89.95
10135;BME280;5107;48.850;8.924;2023-02-20T06:36:21;97822.97;;;4.69;90.53
10135;BME280;5107;48.850;8.924;2023-02-20T06:38:50;97824.63;;;4.70;91.08
10135;BME280;5107;48.850;8.924;2023-02-20T06:41:17;97825.56;;;4.69;90.22
10135;BME280;5107;48.850;8.924;2023-02-20T06:43:44;97838.41;;;4.72;90.39
10135;BME280;5107;48.850;8.924;2023-02-20T06:46:11;97833.00;;;4.75;89.90
10135;BME280;5107;48.850;8.924;2023-02-20T06:48:43;97837.56;;;4.84;89.91
10135;BME280;5107;48.850;8.924;2023-02-20T06:51:11;97839.84;;;5.02;89.09
10135;BME280;5107;48.850;8.924;2023-02-20T06:53:38;97833.31;;;5.20;88.23
10135;BME280;5107;48.850;8.924;2023-02-20T06:56:10;97844.47;;;5.34;87.29
10135;BME280;5107;48.850;8.924;2023-02-20T06:58:37;97838.91;;;5.87;91.89
10135;BME280;5107;48.850;8.924;2023-02-20T07:01:04;97834.38;;;6.47;88.99
10135;BME280;5107;48.850;8.924;2023-02-20T07:03:31;97834.72;;;6.54;82.38
10135;BME280;5107;48.850;8.924;2023-02-20T07:05:58;97827.72;;;6.55;82.80
10135;BME280;5107;48.850;8.924;2023-02-20T07:08:25;97833.69;;;6.68;81.71
10135;BME280;5107;48.850;8.924;2023-02-20T07:10:52;97835.84;;;6.85;83.80
10135;BME280;5107;48.850;8.924;2023-02-20T07:13:21;97830.72;;;6.83;80.37
10135;BME280;5107;48.850;8.924;2023-02-20T07:15:48;97823.81;;;7.05;80.21
10135;BME280;5107;48.850;8.924;2023-02-20T07:18:16;97830.84;;;6.93;79.78
10135;BME280;5107;48.850;8.924;2023-02-20T07:20:43;97836.28;;;6.79;80.28
10135;BME280;5107;48.850;8.924;2023-02-20T07:23:10;97838.81;;;6.69;81.04
10135;BME280;5107;48.850;8.924;2023-02-20T07:25:37;97836.56;;;6.76;80.36
10135;BME280;5107;48.850;8.924;2023-02-20T07:28:04;97848.66;;;6.88;80.37
10135;BME280;5107;48.850;8.924;2023-02-20T07:30:34;97840.22;;;6.96;79.50
10135;BME280;5107;48.850;8.924;2023-02-20T07:33:01;97851.38;;;7.20;79.17
10135;BME280;5107;48.850;8.924;2023-02-20T07:35:29;97851.38;;;7.42;77.94
10135;BME280;5107;48.850;8.924;2023-02-20T07:38:01;97850.13;;;7.69;77.17
10135;BME280;5107;48.850;8.924;2023-02-20T07:40:28;97851.41;;;7.85;76.15
10135;BME280;5107;48.850;8.924;2023-02-20T07:42:55;97850.59;;;8.06;75.40
10135;BME280;5107;48.850;8.924;2023-02-20T07:45:22;97840.69;;;8.09;74.77
10135;BME280;5107;48.850;8.924;2023-02-20T07:47:51;97843.91;;;8.54;75.91
10135;BME280;5107;48.850;8.924;2023-02-20T07:50:18;97846.69;;;8.53;72.81
10135;BME280;5107;48.850;8.924;2023-02-20T07:52:46;97849.50;;;8.08;73.41
10135;BME280;5107;48.850;8.924;2023-02-20T07:55:14;97850.69;;;7.83;75.06
10135;BME280;5107;48.850;8.924;2023-02-20T07:57:43;97847.97;;;7.74;75.40
10135;BME280;5107;48.850;8.924;2023-02-20T08:00:14;97845.56;;;7.82;75.45
10135;BME280;5107;48.850;8.924;2023-02-20T08:02:42;97844.91;;;7.69;75.73
10135;BME280;5107;48.850;8.924;2023-02-20T08:05:10;97837.72;;;7.71;75.79
10135;BME280;5107;48.850;8.924;2023-02-20T08:07:38;97827.31;;;7.48;76.47
10135;BME280;5107;48.850;8.924;2023-02-20T08:10:09;97837.91;;;7.47;76.94
10135;BME280;5107;48.850;8.924;2023-02-20T08:12:36;97841.47;;;7.46;76.51
10135;BME280;5107;48.850;8.924;2023-02-20T08:15:04;97840.41;;;7.59;76.60
10135;BME280;5107;48.850;8.924;2023-02-20T08:17:31;97840.50;;;7.69;75.95
10135;BME280;5107;48.850;8.924;2023-02-20T08:19:58;97829.75;;;7.72;76.14
10135;BME280;5107;48.850;8.924;2023-02-20T08:22:26;97831.09;;;7.98;74.96
10135;BME280;5107;48.850;8.924;2023-02-20T08:24:53;97830.97;;;8.21;74.59
10135;BME280;5107;48.850;8.924;2023-02-20T08:27:20;97826.97;;;8.37;74.17
10135;BME280;5107;48.850;8.924;2023-02-20T08:29:47;97828.28;;;8.73;73.79
10135;BME280;5107;48.850;8.924;2023-02-20T08:32:14;97822.50;;;8.80;72.09
10135;BME280;5107;48.850;8.924;2023-02-20T08:34:42;97821.94;;;9.06;71.65
10135;BME280;5107;48.850;8.924;2023-02-20T08:37:09;97826.41;;;9.16;71.00
10135;BME280;5107;48.850;8.924;2023-02-20T08:39:38;97818.63;;;9.44;69.26
10135;BME280;5107;48.850;8.924;2023-02-20T08:42:05;97820.81;;;9.49;69.65
10135;BME280;5107;48.850;8.924;2023-02-20T08:44:32;97819.34;;;9.66;69.13
10135;BME280;5107;48.850;8.924;2023-02-20T08:46:59;97816.84;;;9.64;67.86
10135;BME280;5107;48.850;8.924;2023-02-20T08:49:26;97816.16;;;9.72;67.58
10135;BME280;5107;48.850;8.924;2023-02-20T08:51:54;97814.34;;;9.63;67.78
10135;BME280;5107;48.850;8.924;2023-02-20T08:54:23;97810.72;;;9.54;67.83
10135;BME280;5107;48.850;8.924;2023-02-20T08:56:51;97811.84;;;9.51;66.58
10135;BME280;5107;48.850;8.924;2023-02-20T08:59:18;97815.22;;;9.92;67.19
10135;BME280;5107;48.850;8.924;2023-02-20T09:01:45;97811.19;;;9.98;65.26
10135;BME280;5107;48.850;8.924;2023-02-20T09:04:12;97808.56;;;10.07;65.23
10135;BME280;5107;48.850;8.924;2023-02-20T09:06:40;97806.78;;;10.37;65.17
10135;BME280;5107;48.850;8.924;2023-02-20T09:09:07;97807.03;;;10.43;64.12
10135;BME280;5107;48.850;8.924;2023-02-20T09:11:35;97806.19;;;10.43;64.46
10135;BME280;5107;48.850;8.924;2023-02-20T09:14:03;97807.28;;;10.59;64.18
10135;BME280;5107;48.850;8.924;2023-02-20T09:16:30;97810.81;;;10.87;63.27
10135;BME280;5107;48.850;8.924;2023-02-20T09:18:57;97798.66;;;11.31;61.67
10135;BME280;5107;48.850;8.924;2023-02-20T09:21:25;97798.78;;;11.30;61.48
10135;BME280;5107;48.850;8.924;2023-02-20T09:23:54;97801.16;;;11.33;61.30
10135;BME280;5107;48.850;8.924;2023-02-20T09:26:21;97799.47;;;11.32;61.99
10135;BME280;5107;48.850;8.924;2023-02-20T09:28:48;97798.69;;;11.22;61.96
10135;BME280;5107;48.850;8.924;2023-02-20T09:31:16;97798.22;;;11.36;61.80
10135;BME280;5107;48.850;8.924;2023-02-20T09:33:44;97801.94;;;11.43;61.64
10135;BME280;5107;48.850;8.924;2023-02-20T09:36:12;97794.75;;;11.35;62.38
10135;BME280;5107;48.850;8.924;2023-02-20T09:38:39;97786.28;;;11.59;61.65
10135;BME280;5107;48.850;8.924;2023-02-20T09:41:17;97785.75;;;11.73;60.88
10135;BME280;5107;48.850;8.924;2023-02-20T09:43:55;97784.75;;;11.39;61.58
10135;BME280;5107;48.850;8.924;2023-02-20T09:46:28;97778.47;;;11.67;61.26
10135;BME280;5107;48.850;8.924;2023-02-20T09:49:04;97772.22;;;11.68;61.36
10135;BME280;5107;48.850;8.924;2023-02-20T09:51:38;97776.91;;;11.47;61.06
10135;BME280;5107;48.850;8.924;2023-02-20T09:54:10;97776.69;;;11.40;62.54
10135;BME280;5107;48.850;8.924;2023-02-20T09:56:43;97775.03;;;11.39;62.50
10135;BME280;5107;48.850;8.924;2023-02-20T09:59:16;97778.53;;;11.13;62.39
10135;BME280;5107;48.850;8.924;2023-02-20T10:01:54;97769.81;;;11.30;61.90
10135;BME280;5107;48.850;8.924;2023-02-20T10:04:30;97760.22;;;11.56;61.34
10135;BME280;5107;48.850;8.924;2023-02-20T10:07:11;97755.38;;;11.79;60.65
10135;BME280;5107;48.850;8.924;2023-02-20T10:09:42;97749.84;;;12.08;60.00
10135;BME280;5107;48.850;8.924;2023-02-20T10:12:17;97754.50;;;12.40;59.30
10135;BME280;5107;48.850;8.924;2023-02-20T10:15:11;97755.97;;;12.94;56.31
10135;BME280;5107;48.850;8.924;2023-02-20T10:17:55;97751.84;;;13.00;56.10
10135;BME280;5107;48.850;8.924;2023-02-20T10:20:35;97745.06;;;13.31;55.79
10135;BME280;5107;48.850;8.924;2023-02-20T10:23:13;97736.88;;;13.58;54.44
10135;BME280;5107;48.850;8.924;2023-02-20T10:25:45;97741.28;;;13.42;54.85
10135;BME280;5107;48.850;8.924;2023-02-20T10:28:17;97745.63;;;13.51;55.48
10135;BME280;5107;48.850;8.924;2023-02-20T10:30:54;97749.63;;;13.79;53.67
10135;BME280;5107;48.850;8.924;2023-02-20T10:33:29;97746.66;;;13.82;54.41
10135;BME280;5107;48.850;8.924;2023-02-20T10:36:03;97738.72;;;14.31;52.50
10135;BME280;5107;48.850;8.924;2023-02-20T10:38:40;97744.00;;;14.31;51.78
10135;BME280;5107;48.850;8.924;2023-02-20T10:41:14;97744.59;;;14.73;50.50
10135;BME280;5107;48.850;8.924;2023-02-20T10:43:49;97743.94;;;14.79;50.23
10135;BME280;5107;48.850;8.924;2023-02-20T10:46:25;97730.88;;;14.70;50.26
10135;BME280;5107;48.850;8.924;2023-02-20T10:48:59;97733.38;;;14.63;50.41
10135;BME280;5107;48.850;8.924;2023-02-20T10:51:31;97733.53;;;14.70;50.48
10135;BME280;5107;48.850;8.924;2023-02-20T10:54:06;97729.16;;;14.85;49.57
10135;BME280;5107;48.850;8.924;2023-02-20T10:56:41;97734.19;;;15.11;49.78
10135;BME280;5107;48.850;8.924;2023-02-20T10:59:17;97737.94;;;15.25;48.13
10135;BME280;5107;48.850;8.924;2023-02-20T11:01:51;97728.97;;;15.65;48.74
10135;BME280;5107;48.850;8.924;2023-02-20T11:04:26;97722.34;;;15.83;47.61
10135;BME280;5107;48.850;8.924;2023-02-20T11:06:58;97727.81;;;15.82;47.54
10135;BME280;5107;48.850;8.924;2023-02-20T11:09:26;97726.44;;;15.71;47.15
10135;BME280;5107;48.850;8.924;2023-02-20T11:11:54;97730.47;;;15.82;48.48
10135;BME280;5107;48.850;8.924;2023-02-20T11:14:29;97722.50;;;15.82;46.82
10135;BME280;5107;48.850;8.924;2023-02-20T11:17:00;97717.63;;;15.71;46.88
10135;BME280;5107;48.850;8.924;2023-02-20T11:19:40;97712.13;;;15.95;47.09
10135;BME280;5107;48.850;8.924;2023-02-20T11:22:09;97713.97;;;15.94;44.43
10135;BME280;5107;48.850;8.924;2023-02-20T11:24:39;97711.03;;;16.27;46.13
10135;BME280;5107;48.850;8.924;2023-02-20T11:27:10;97705.47;;;16.37;43.36
10135;BME280;5107;48.850;8.924;2023-02-20T11:29:47;97702.97;;;16.50;43.87
10135;BME280;5107;48.850;8.924;2023-02-20T11:32:30;97700.66;;;16.32;43.23
10135;BME280;5107;48.850;8.924;2023-02-20T11:35:24;97692.69;;;16.17;42.75
10135;BME280;5107;48.850;8.924;2023-02-20T11:38:29;97685.47;;;16.26;44.16
10135;BME280;5107;48.850;8.924;2023-02-20T11:41:11;97685.47;;;16.26;44.11
10135;BME280;5107;48.850;8.924;2023-02-20T11:43:45;97677.22;;;16.50;44.15
10135;BME280;5107;48.850;8.924;2023-02-20T11:46:17;97675.31;;;16.59;43.14
10135;BME280;5107;48.850;8.924;2023-02-20T11:49:04;97671.75;;;16.37;43.49
10135;BME280;5107;48.850;8.924;2023-02-20T11:51:36;97665.56;;;16.07;42.58
10135;BME280;5107;48.850;8.924;2023-02-20T11:54:12;97661.94;;;16.38;43.03
10135;BME280;5107;48.850;8.924;2023-02-20T11:56:54;97649.56;;;16.59;42.45
10135;BME280;5107;48.850;8.924;2023-02-20T11:59:30;97653.69;;;16.32;42.29
10135;BME280;5107;48.850;8.924;2023-02-20T12:02:23;97651.06;;;16.62;43.20
10135;BME280;5107;48.850;8.924;2023-02-20T12:05:08;97654.06;;;16.88;42.06
10135;BME280;5107;48.850;8.924;2023-02-20T12:07:41;97642.69;;;16.94;42.20
10135;BME280;5107;48.850;8.924;2023-02-20T12:10:28;97642.16;;;16.55;41.56
10135;BME280;5107;48.850;8.924;2023-02-20T12:12:57;97638.78;;;16.31;42.32
10135;BME280;5107;48.850;8.924;2023-02-20T12:15:27;97634.94;;;16.63;42.86
10135;BME280;5107;48.850;8.924;2023-02-20T12:18:24;97626.00;;;16.42;40.96
10135;BME280;5107;48.850;8.924;2023-02-20T12:21:08;97627.84;;;15.97;41.21
10135;BME280;5107;48.850;8.924;2023-02-20T12:23:49;97610.91;;;15.98;41.34
10135;BME280;5107;48.850;8.924;2023-02-20T12:26:31;97616.78;;;16.23;41.03
10135;BME280;5107;48.850;8.924;2023-02-20T12:29:14;97611.91;;;16.12;40.95
10135;BME280;5107;48.850;8.924;2023-02-20T12:31:53;97615.19;;;16.58;40.43
10135;BME280;5107;48.850;8.924;2023-02-20T12:34:57;97606.22;;;16.88;40.32
10135;BME280;5107;48.850;8.924;2023-02-20T12:37:39;97604.78;;;17.07;40.57
10135;BME280;5107;48.850;8.924;2023-02-20T12:40:33;97600.09;;;16.73;39.10
10135;BME280;5107;48.850;8.924;2023-02-20T12:43:15;97599.47;;;16.71;39.22
10135;BME280;5107;48.850;8.924;2023-02-20T12:45:48;97594.78;;;16.73;39.35
10135;BME280;5107;48.850;8.924;2023-02-20T12:48:37;97581.28;;;16.60;39.10
10135;BME280;5107;48.850;8.924;2023-02-20T12:51:23;97583.94;;;16.75;39.24
10135;BME280;5107;48.850;8.924;2023-02-20T12:54:06;97575.78;;;16.76;39.31
10135;BME280;5107;48.850;8.924;2023-02-20T12:56:56;97564.50;;;16.23;39.82
10135;BME280;5107;48.850;8.924;2023-02-20T12:59:29;97565.38;;;16.01;40.94
10135;BME280;5107;48.850;8.924;2023-02-20T13:02:11;97561.72;;;16.46;40.76
10135;BME280;5107;48.850;8.924;2023-02-20T13:04:46;97559.88;;;16.61;39.18
10135;BME280;5107;48.850;8.924;2023-02-20T13:07:17;97545.66;;;16.54;38.46
10135;BME280;5107;48.850;8.924;2023-02-20T13:10:00;97537.72;;;16.90;37.97
10135;BME280;5107;48.850;8.924;2023-02-20T13:12:30;97535.47;;;16.58;38.01
10135;BME280;5107;48.850;8.924;2023-02-20T13:18:01;97525.56;;;16.81;36.36
10135;BME280;5107;48.850;8.924;2023-02-20T13:20:35;97504.13;;;16.68;36.87
10135;BME280;5107;48.850;8.924;2023-02-20T13:23:05;97508.13;;;16.43;37.91
10135;BME280;5107;48.850;8.924;2023-02-20T13:25:42;97507.22;;;16.36;38.03
10135;BME280;5107;48.850;8.924;2023-02-20T13:28:37;97489.19;;;16.31;37.31
10135;BME280;5107;48.850;8.924;2023-02-20T13:31:18;97497.34;;;16.29;37.21
10135;BME280;5107;48.850;8.924;2023-02-20T13:33:48;97488.19;;;16.68;37.56
10135;BME280;5107;48.850;8.924;2023-02-20T13:36:39;97483.06;;;16.66;37.75
10135;BME280;5107;48.850;8.924;2023-02-20T13:39:45;97489.16;;;16.46;36.86
10135;BME280;5107;48.850;8.924;2023-02-20T13:42:34;97489.88;;;16.90;38.37
10135;BME280;5107;48.850;8.924;2023-02-20T13:45:35;97491.13;;;17.43;37.96
10135;BME280;5107;48.850;8.924;2023-02-20T13:48:37;97481.59;;;17.56;36.94
10135;BME280;5107;48.850;8.924;2023-02-20T13:51:43;97486.91;;;17.83;35.94
10135;BME280;5107;48.850;8.924;2023-02-20T13:54:28;97482.50;;;17.41;35.77
10135;BME280;5107;48.850;8.924;2023-02-20T13:57:16;97480.53;;;17.22;36.12
10135;BME280;5107;48.850;8.924;2023-02-20T13:59:46;97490.09;;;16.74;34.85
10135;BME280;5107;48.850;8.924;2023-02-20T14:02:19;97474.06;;;16.31;35.38